createdAt,value
2022-10-22T00:00:43.092Z,66.42
2022-10-22T00:03:11.347Z,66.38
2022-10-22T00:05:38.845Z,66.10
2022-10-22T00:08:06.297Z,66.05
2022-10-22T00:10:34.118Z,65.94
2022-10-22T00:13:01.486Z,65.96
2022-10-22T00:15:28.863Z,65.90
2022-10-22T00:17:56.575Z,65.97
2022-10-22T00:20:24.105Z,66.02
2022-10-22T00:25:24.098Z,65.52
2022-10-22T00:27:51.511Z,65.55
2022-10-22T00:30:19.203Z,65.47
2022-10-22T00:32:46.892Z,65.38
2022-10-22T00:35:14.445Z,65.42
2022-10-22T00:37:41.855Z,65.30
2022-10-22T00:40:10.436Z,65.32
2022-10-22T00:42:38.590Z,65.25
2022-10-22T00:45:16.751Z,64.97
2022-10-22T00:47:55.643Z,65.12
2022-10-22T00:50:31.175Z,65.29
2022-10-22T00:52:59.263Z,65.54
2022-10-22T00:55:29.335Z,65.44
2022-10-22T00:57:58.097Z,65.56
2022-10-22T01:00:26.231Z,65.48
2022-10-22T01:02:55.420Z,65.58
2022-10-22T01:05:23.396Z,65.69
2022-10-22T01:07:53.456Z,65.74
2022-10-22T01:10:36.708Z,65.82
2022-10-22T01:13:07.748Z,65.67
2022-10-22T01:15:48.615Z,65.33
2022-10-22T01:18:45.692Z,65.11
2022-10-22T01:21:25.270Z,65.42
2022-10-22T01:23:52.863Z,65.27
2022-10-22T01:26:28.178Z,65.14
2022-10-22T01:29:01.931Z,65.10
2022-10-22T01:31:35.145Z,65.11
2022-10-22T01:34:04.368Z,65.16
2022-10-22T01:36:35.673Z,65.31
2022-10-22T01:39:05.562Z,65.11
2022-10-22T01:41:34.723Z,65.04
2022-10-22T01:44:02.200Z,65.02
2022-10-22T01:46:29.899Z,64.96
2022-10-22T01:49:11.171Z,64.89
2022-10-22T01:51:56.915Z,64.69
2022-10-22T01:54:26.964Z,64.65
2022-10-22T01:57:15.819Z,64.65
2022-10-22T01:59:49.147Z,64.31
2022-10-22T02:02:28.647Z,64.41
2022-10-22T02:05:22.278Z,64.44
2022-10-22T02:08:07.370Z,64.59
2022-10-22T02:10:38.502Z,64.63
2022-10-22T02:13:11.183Z,64.62
2022-10-22T02:15:40.156Z,64.87
2022-10-22T02:18:09.907Z,64.98
2022-10-22T02:20:40.515Z,64.94
2022-10-22T02:23:09.913Z,65.10
2022-10-22T02:25:41.941Z,65.11
2022-10-22T02:28:20.858Z,65.08
2022-10-22T02:30:54.927Z,65.20
2022-10-22T02:33:34.384Z,65.21
2022-10-22T02:36:03.623Z,65.31
2022-10-22T02:38:34.132Z,65.50
2022-10-22T02:41:02.064Z,65.40
2022-10-22T02:43:29.994Z,65.60
2022-10-22T02:45:57.908Z,65.54
2022-10-22T02:48:25.348Z,65.32
2022-10-22T02:50:52.777Z,65.52
2022-10-22T02:53:20.455Z,65.37
2022-10-22T02:55:47.858Z,65.49
2022-10-22T02:58:15.239Z,65.43
2022-10-22T03:00:42.971Z,65.71
2022-10-22T03:03:10.356Z,65.97
2022-10-22T03:05:37.763Z,65.86
2022-10-22T03:08:05.451Z,66.00
2022-10-22T03:10:32.865Z,65.60
2022-10-22T03:13:00.646Z,65.76
2022-10-22T03:18:00.911Z,65.68
2022-10-22T03:20:28.602Z,65.83
2022-10-22T03:22:57.332Z,65.93
2022-10-22T03:25:27.536Z,65.97
2022-10-22T03:28:01.606Z,66.09
2022-10-22T03:30:29.112Z,66.20
2022-10-22T03:32:57.062Z,66.22
2022-10-22T03:35:24.747Z,66.36
2022-10-22T03:37:52.473Z,66.46
2022-10-22T03:40:20.683Z,66.50
2022-10-22T03:42:48.239Z,66.64
2022-10-22T03:45:15.684Z,66.76
2022-10-22T03:47:43.475Z,66.85
2022-10-22T03:50:11.287Z,67.13
2022-10-22T03:52:39.970Z,67.35
2022-10-22T03:55:08.589Z,67.47
2022-10-22T03:57:36.007Z,67.52
2022-10-22T04:00:04.730Z,67.45
2022-10-22T04:02:32.447Z,67.47
2022-10-22T04:05:00.332Z,67.46
2022-10-22T04:07:27.772Z,67.66
2022-10-22T04:09:55.135Z,67.79
2022-10-22T04:12:22.826Z,67.88
2022-10-22T04:14:50.338Z,68.01
2022-10-22T04:17:17.914Z,68.15
2022-10-22T04:19:45.587Z,68.27
2022-10-22T04:22:12.996Z,68.27
2022-10-22T04:24:40.522Z,68.40
2022-10-22T04:27:08.277Z,68.60
2022-10-22T04:29:35.786Z,68.73
2022-10-22T04:32:03.208Z,68.87
2022-10-22T04:34:31.438Z,68.84
2022-10-22T04:36:58.827Z,68.81
2022-10-22T04:39:26.350Z,68.79
2022-10-22T04:41:54.089Z,68.87
2022-10-22T04:44:21.454Z,68.96
2022-10-22T04:46:48.841Z,68.92
2022-10-22T04:49:16.515Z,68.82
2022-10-22T04:51:43.912Z,68.74
2022-10-22T04:54:11.329Z,68.75
2022-10-22T04:56:39.093Z,68.73
2022-10-22T04:59:09.040Z,68.67
2022-10-22T05:01:42.706Z,68.69
2022-10-22T05:04:13.626Z,68.72
2022-10-22T05:06:41.240Z,68.64
2022-10-22T05:09:15.650Z,68.50
2022-10-22T05:11:46.374Z,68.12
2022-10-22T05:14:15.824Z,68.33
2022-10-22T05:19:20.830Z,68.10
2022-10-22T05:21:48.514Z,67.84
2022-10-22T05:24:15.943Z,67.76
2022-10-22T05:26:43.391Z,67.72
2022-10-22T05:29:11.088Z,67.67
2022-10-22T05:31:39.023Z,67.80
2022-10-22T05:34:06.456Z,67.70
2022-10-22T05:36:34.205Z,67.74
2022-10-22T05:39:01.666Z,67.95
2022-10-22T05:41:29.577Z,67.83
2022-10-22T05:43:58.962Z,68.67
2022-10-22T05:46:29.106Z,69.08
2022-10-22T05:49:02.476Z,68.95
2022-10-22T05:51:32.614Z,69.11
2022-10-22T05:54:02.783Z,69.07
2022-10-22T05:56:32.190Z,69.31
2022-10-22T05:59:00.781Z,69.75
2022-10-22T06:01:30.663Z,70.09
2022-10-22T06:04:01.120Z,70.32
2022-10-22T06:06:35.951Z,70.35
2022-10-22T06:09:25.043Z,70.34
2022-10-22T06:11:53.692Z,71.19
2022-10-22T06:14:22.089Z,71.47
2022-10-22T06:16:50.363Z,71.54
2022-10-22T06:19:20.135Z,71.42
2022-10-22T06:21:48.787Z,71.48
2022-10-22T06:24:16.238Z,71.94
2022-10-22T06:26:43.930Z,71.24
2022-10-22T06:29:11.669Z,71.10
2022-10-22T06:31:39.096Z,69.82
2022-10-22T06:34:08.228Z,69.65
2022-10-22T06:36:36.339Z,70.06
2022-10-22T06:39:05.065Z,69.24
2022-10-22T06:41:32.576Z,68.70
2022-10-22T06:44:00.331Z,68.66
2022-10-22T06:46:27.975Z,68.40
2022-10-22T06:48:58.193Z,68.58
2022-10-22T06:51:27.025Z,69.12
2022-10-22T06:53:55.892Z,69.61
2022-10-22T06:56:25.198Z,69.84
2022-10-22T06:58:54.848Z,69.56
2022-10-22T07:01:26.267Z,69.24
2022-10-22T07:03:54.922Z,69.22
2022-10-22T07:06:24.264Z,68.92
2022-10-22T07:08:52.094Z,68.36
2022-10-22T07:11:22.756Z,67.87
2022-10-22T07:13:53.619Z,66.19
2022-10-22T07:16:21.695Z,65.73
2022-10-22T07:18:49.605Z,65.80
2022-10-22T07:21:20.287Z,65.99
2022-10-22T07:23:48.352Z,66.72
2022-10-22T07:26:17.730Z,67.07
2022-10-22T07:28:45.217Z,66.03
2022-10-22T07:31:14.840Z,64.72
2022-10-22T07:33:42.717Z,64.59
2022-10-22T07:36:17.434Z,64.09
2022-10-22T07:38:47.072Z,63.86
2022-10-22T07:41:16.083Z,63.18
2022-10-22T07:43:44.009Z,62.17
2022-10-22T07:46:12.113Z,61.24
2022-10-22T07:48:39.911Z,64.43
2022-10-22T07:51:08.001Z,62.46
2022-10-22T07:53:36.209Z,60.58
2022-10-22T07:56:03.951Z,58.98
2022-10-22T07:58:31.762Z,59.17
2022-10-22T08:01:01.109Z,58.76
2022-10-22T08:03:29.703Z,56.69
2022-10-22T08:05:57.408Z,54.79
2022-10-22T08:08:28.313Z,53.87
2022-10-22T08:11:01.195Z,54.64
2022-10-22T08:13:30.760Z,53.35
2022-10-22T08:16:00.483Z,52.68
2022-10-22T08:18:28.963Z,51.78
2022-10-22T08:20:56.995Z,50.31
2022-10-22T08:23:27.689Z,49.50
2022-10-22T08:25:57.380Z,47.35
2022-10-22T08:28:25.745Z,46.25
2022-10-22T08:30:53.156Z,45.55
2022-10-22T08:33:20.660Z,45.57
2022-10-22T08:35:49.889Z,46.71
2022-10-22T08:38:18.215Z,45.87
2022-10-22T08:40:49.893Z,43.97
2022-10-22T08:43:25.344Z,43.27
2022-10-22T08:46:30.020Z,42.57
2022-10-22T08:49:00.676Z,41.38
2022-10-22T08:51:32.961Z,42.29
2022-10-22T08:54:19.276Z,42.38
2022-10-22T08:56:57.965Z,41.53
2022-10-22T08:59:43.801Z,40.32
2022-10-22T09:02:39.012Z,38.95
2022-10-22T09:05:25.452Z,38.89
2022-10-22T09:07:55.154Z,37.21
2022-10-22T09:10:29.442Z,36.02
2022-10-22T09:12:56.949Z,34.56
2022-10-22T09:15:24.739Z,33.15
2022-10-22T09:18:17.761Z,32.32
2022-10-22T09:20:54.361Z,33.24
2022-10-22T09:23:55.157Z,32.23
2022-10-22T09:26:22.847Z,33.59
2022-10-22T09:28:51.432Z,33.67
2022-10-22T09:31:19.208Z,33.27
2022-10-22T09:33:51.032Z,34.04
2022-10-22T09:36:22.680Z,34.41
2022-10-22T09:38:53.110Z,34.46
2022-10-22T09:41:25.112Z,34.10
2022-10-22T09:43:53.148Z,32.50
2022-10-22T09:46:28.204Z,31.07
2022-10-22T09:48:55.819Z,30.30
2022-10-22T09:51:35.859Z,30.71
2022-10-22T09:54:18.024Z,30.20
2022-10-22T09:57:05.146Z,29.35
2022-10-22T09:59:37.763Z,28.66
2022-10-22T10:02:20.124Z,28.28
2022-10-22T10:04:57.120Z,28.33
2022-10-22T10:07:24.499Z,27.81
2022-10-22T10:09:54.012Z,27.81
2022-10-22T10:12:24.302Z,27.35
2022-10-22T10:15:36.548Z,26.96
2022-10-22T10:18:24.771Z,26.93
2022-10-22T10:21:16.999Z,27.16
2022-10-22T10:24:09.624Z,28.31
2022-10-22T10:26:47.720Z,29.49
2022-10-22T10:32:34.392Z,30.20
2022-10-22T10:35:35.005Z,30.81
2022-10-22T10:38:28.817Z,31.33
2022-10-22T10:41:20.228Z,31.69
2022-10-22T10:43:59.968Z,32.58
2022-10-22T10:46:38.891Z,31.78
2022-10-22T10:49:11.142Z,32.20
2022-10-22T10:52:06.700Z,32.29
2022-10-22T10:54:52.053Z,32.00
2022-10-22T10:57:31.964Z,32.24
2022-10-22T11:00:50.773Z,32.80
2022-10-22T11:03:36.751Z,32.95
2022-10-22T11:06:09.902Z,33.41
2022-10-22T11:08:45.478Z,34.32
2022-10-22T11:11:30.119Z,34.24
2022-10-22T11:14:06.329Z,35.22
2022-10-22T11:16:48.769Z,36.14
2022-10-22T11:19:51.515Z,35.05
2022-10-22T11:22:27.052Z,35.61
2022-10-22T11:25:03.062Z,35.81
2022-10-22T11:27:30.360Z,36.30
2022-10-22T11:30:03.980Z,36.02
2022-10-22T11:32:32.825Z,36.37
2022-10-22T11:35:04.221Z,37.09
2022-10-22T11:37:35.289Z,36.88
2022-10-22T11:40:08.785Z,37.10
2022-10-22T11:42:44.716Z,37.24
2022-10-22T11:45:15.453Z,36.99
2022-10-22T11:48:10.445Z,37.82
2022-10-22T11:50:57.622Z,37.49
2022-10-22T11:53:33.834Z,37.78
2022-10-22T11:56:07.446Z,38.38
2022-10-22T11:58:43.920Z,38.02
2022-10-22T12:01:11.545Z,38.24
2022-10-22T12:03:43.956Z,38.48
2022-10-22T12:06:12.156Z,38.22
2022-10-22T12:08:46.911Z,38.28
2022-10-22T12:11:16.991Z,38.52
2022-10-22T12:14:00.333Z,38.45
2022-10-22T12:16:54.753Z,39.02
2022-10-22T12:19:23.874Z,39.38
2022-10-22T12:21:58.853Z,39.17
2022-10-22T12:24:31.416Z,38.78
2022-10-22T12:26:58.879Z,38.97
2022-10-22T12:29:27.761Z,39.14
2022-10-22T12:31:56.001Z,39.89
2022-10-22T12:34:25.018Z,39.98
2022-10-22T12:36:54.007Z,40.17
2022-10-22T12:39:25.770Z,39.58
2022-10-22T12:41:54.695Z,40.31
2022-10-22T12:44:22.092Z,40.27
2022-10-22T12:46:53.170Z,39.84
2022-10-22T12:49:38.661Z,40.48
2022-10-22T12:52:14.034Z,40.08
2022-10-22T12:54:42.007Z,40.47
2022-10-22T12:57:18.020Z,41.35
2022-10-22T12:59:50.267Z,41.72
2022-10-22T13:02:26.365Z,41.78
2022-10-22T13:05:12.759Z,41.49
2022-10-22T13:07:43.023Z,42.33
2022-10-22T13:10:35.262Z,42.47
2022-10-22T13:13:04.127Z,42.85
2022-10-22T13:15:31.764Z,43.04
2022-10-22T13:18:06.581Z,43.37
2022-10-22T13:20:37.456Z,43.76
2022-10-22T13:23:06.455Z,44.51
2022-10-22T13:25:38.136Z,45.05
2022-10-22T13:28:08.233Z,44.97
2022-10-22T13:30:37.408Z,44.90
2022-10-22T13:33:41.284Z,45.71
2022-10-22T13:36:16.358Z,45.86
2022-10-22T13:38:45.052Z,46.10
2022-10-22T13:41:27.700Z,46.36
2022-10-22T13:43:55.477Z,47.37
2022-10-22T13:46:24.675Z,47.38
2022-10-22T13:48:54.932Z,48.01
2022-10-22T13:51:25.169Z,48.69
2022-10-22T13:53:53.657Z,48.61
2022-10-22T13:56:21.933Z,48.55
2022-10-22T13:58:50.535Z,48.76
2022-10-22T14:01:22.221Z,49.09
2022-10-22T14:03:51.896Z,49.97
2022-10-22T14:06:21.291Z,50.17
2022-10-22T14:09:00.283Z,50.08
2022-10-22T14:11:28.604Z,50.11
2022-10-22T14:13:56.028Z,51.25
2022-10-22T14:16:26.724Z,51.00
2022-10-22T14:18:56.311Z,51.36
2022-10-22T14:21:24.003Z,51.99
2022-10-22T14:23:52.800Z,51.78
2022-10-22T14:26:28.225Z,51.48
2022-10-22T14:29:11.802Z,51.69
2022-10-22T14:31:42.331Z,51.91
2022-10-22T14:34:14.905Z,52.10
2022-10-22T14:36:44.064Z,53.05
2022-10-22T14:39:12.873Z,52.95
2022-10-22T14:41:41.185Z,53.22
2022-10-22T14:44:12.823Z,53.88
2022-10-22T14:46:42.742Z,53.37
2022-10-22T14:49:10.493Z,53.60
2022-10-22T14:51:37.973Z,53.49
2022-10-22T14:54:05.365Z,53.69
2022-10-22T14:56:33.181Z,53.87
2022-10-22T14:59:00.592Z,54.06
2022-10-22T15:01:28.184Z,53.88
2022-10-22T15:03:55.859Z,55.89
2022-10-22T15:06:23.233Z,59.21
2022-10-22T15:08:50.949Z,60.05
2022-10-22T15:11:18.694Z,60.23
2022-10-22T15:13:46.159Z,61.94
2022-10-22T15:16:15.561Z,63.16
2022-10-22T15:18:43.240Z,62.99
2022-10-22T15:21:16.283Z,63.95
2022-10-22T15:23:44.132Z,65.08
2022-10-22T15:26:13.111Z,66.46
2022-10-22T15:28:41.099Z,68.16
2022-10-22T15:31:12.171Z,68.81
2022-10-22T15:33:42.384Z,68.53
2022-10-22T15:36:13.317Z,68.23
2022-10-22T15:38:40.840Z,68.52
2022-10-22T15:41:12.514Z,68.40
2022-10-22T15:43:40.403Z,68.36
2022-10-22T15:46:16.945Z,68.21
2022-10-22T15:48:45.531Z,68.33
2022-10-22T15:51:18.261Z,68.44
2022-10-22T15:53:52.914Z,68.33
2022-10-22T15:56:20.576Z,68.16
2022-10-22T15:58:53.556Z,68.12
2022-10-22T16:01:21.241Z,68.61
2022-10-22T16:03:52.646Z,68.97
2022-10-22T16:06:20.071Z,69.75
2022-10-22T16:08:47.514Z,69.80
2022-10-22T16:11:15.168Z,69.87
2022-10-22T16:13:42.544Z,69.77
2022-10-22T16:16:09.896Z,70.05
2022-10-22T16:18:37.574Z,70.15
2022-10-22T16:21:05.031Z,70.06
2022-10-22T16:23:32.428Z,70.17
2022-10-22T16:26:02.095Z,70.31
2022-10-22T16:28:29.506Z,70.28
2022-10-22T16:30:57.355Z,70.21
2022-10-22T16:33:25.043Z,70.85
2022-10-22T16:35:52.435Z,71.44
2022-10-22T16:38:19.844Z,72.10
2022-10-22T16:40:47.571Z,72.42
2022-10-22T16:43:14.975Z,72.66
2022-10-22T16:45:51.503Z,72.90
2022-10-22T16:48:19.218Z,73.21
2022-10-22T16:50:46.771Z,73.69
2022-10-22T16:53:14.252Z,73.81
2022-10-22T16:55:41.932Z,74.16
2022-10-22T16:58:09.504Z,74.48
2022-10-22T17:00:36.994Z,74.96
2022-10-22T17:03:04.750Z,75.46
2022-10-22T17:05:32.172Z,76.65
2022-10-22T17:07:59.561Z,78.16
2022-10-22T17:10:27.264Z,78.90
2022-10-22T17:12:54.700Z,79.21
2022-10-22T17:15:22.111Z,79.51
2022-10-22T17:17:53.724Z,80.23
2022-10-22T17:20:21.540Z,80.25
2022-10-22T17:22:49.721Z,81.07
2022-10-22T17:25:22.161Z,81.29
2022-10-22T17:27:50.030Z,81.51
2022-10-22T17:30:23.351Z,82.15
2022-10-22T17:32:54.791Z,81.91
2022-10-22T17:35:22.585Z,82.36
2022-10-22T17:37:50.039Z,82.68
2022-10-22T17:40:17.424Z,82.06
2022-10-22T17:42:45.559Z,82.24
2022-10-22T17:45:12.968Z,82.55
2022-10-22T17:47:40.660Z,82.29
2022-10-22T17:50:09.415Z,82.56
2022-10-22T17:52:36.982Z,82.85
2022-10-22T17:55:04.647Z,82.53
2022-10-22T17:57:32.418Z,82.86
2022-10-22T17:59:59.861Z,82.76
2022-10-22T18:02:27.291Z,83.16
2022-10-22T18:04:54.979Z,82.44
2022-10-22T18:07:22.392Z,82.06
2022-10-22T18:09:49.911Z,82.39
2022-10-22T18:12:18.141Z,81.84
2022-10-22T18:14:47.081Z,81.90
2022-10-22T18:19:48.416Z,82.32
2022-10-22T18:22:15.854Z,82.31
2022-10-22T18:24:43.294Z,81.71
2022-10-22T18:27:10.994Z,82.17
2022-10-22T18:29:38.405Z,81.70
2022-10-22T18:32:12.106Z,82.29
2022-10-22T18:34:40.882Z,82.99
2022-10-22T18:37:08.310Z,83.51
2022-10-22T18:39:35.711Z,82.48
2022-10-22T18:42:06.344Z,82.06
2022-10-22T18:44:34.975Z,83.00
2022-10-22T18:47:02.950Z,82.96
2022-10-22T18:49:30.392Z,83.39
2022-10-22T18:51:57.788Z,83.19
2022-10-22T18:54:25.488Z,83.21
2022-10-22T18:57:00.573Z,83.20
2022-10-22T18:59:30.053Z,83.86
2022-10-22T19:01:59.483Z,83.72
2022-10-22T19:04:33.189Z,83.65
2022-10-22T19:07:01.063Z,83.61
2022-10-22T19:09:28.929Z,84.19
2022-10-22T19:11:56.459Z,84.53
2022-10-22T19:14:24.199Z,84.52
2022-10-22T19:16:51.678Z,84.61
2022-10-22T19:19:21.423Z,84.60
2022-10-22T19:21:49.517Z,84.38
2022-10-22T19:24:18.937Z,84.43
2022-10-22T19:26:47.230Z,84.16
2022-10-22T19:29:16.764Z,84.33
2022-10-22T19:31:44.732Z,84.32
2022-10-22T19:34:12.248Z,84.55
2022-10-22T19:36:40.128Z,84.50
2022-10-22T19:39:07.781Z,84.51
2022-10-22T19:41:35.432Z,84.76
2022-10-22T19:44:03.290Z,84.73
2022-10-22T19:46:32.637Z,84.85
2022-10-22T19:49:01.935Z,84.88
2022-10-22T19:51:31.962Z,84.86
2022-10-22T19:54:05.840Z,84.80
2022-10-22T19:56:34.622Z,84.76
2022-10-22T19:59:04.231Z,84.83
2022-10-22T20:01:32.085Z,84.87
2022-10-22T20:04:01.507Z,84.74
2022-10-22T20:06:29.817Z,85.03
2022-10-22T20:08:57.889Z,85.34
2022-10-22T20:11:28.479Z,85.13
2022-10-22T20:13:57.224Z,84.87
2022-10-22T20:16:29.672Z,84.82
2022-10-22T20:19:02.762Z,84.88
2022-10-22T20:21:30.951Z,84.85
2022-10-22T20:23:59.156Z,84.66
2022-10-22T20:26:28.406Z,85.17
2022-10-22T20:28:57.652Z,84.65
2022-10-22T20:31:28.564Z,84.79
2022-10-22T20:34:01.260Z,84.95
2022-10-22T20:36:30.983Z,85.50
2022-10-22T20:39:01.431Z,86.20
2022-10-22T20:41:29.427Z,86.51
2022-10-22T20:43:57.268Z,86.44
2022-10-22T20:46:29.240Z,86.93
2022-10-22T20:49:01.212Z,87.22
2022-10-22T20:51:29.235Z,84.87
2022-10-22T20:53:57.069Z,86.94
2022-10-22T20:56:24.939Z,87.01
2022-10-22T20:59:03.884Z,87.23
2022-10-22T21:01:37.136Z,87.47
2022-10-22T21:04:05.515Z,87.29
2022-10-22T21:06:34.250Z,87.51
2022-10-22T21:09:01.700Z,87.67
2022-10-22T21:11:29.177Z,87.78
2022-10-22T21:13:56.911Z,87.81
2022-10-22T21:16:24.367Z,87.94
2022-10-22T21:18:51.820Z,88.11
2022-10-22T21:21:20.099Z,88.12
2022-10-22T21:23:50.299Z,88.08
2022-10-22T21:26:19.043Z,88.20
2022-10-22T21:28:46.995Z,88.51
2022-10-22T21:31:21.575Z,88.61
2022-10-22T21:33:50.025Z,88.73
2022-10-22T21:36:22.406Z,88.86
2022-10-22T21:38:52.016Z,89.07
2022-10-22T21:41:22.154Z,89.28
2022-10-22T21:43:50.827Z,89.05
2022-10-22T21:46:20.731Z,88.97
2022-10-22T21:48:53.416Z,89.22
2022-10-22T21:51:22.140Z,89.12
2022-10-22T21:53:49.918Z,89.04
2022-10-22T21:56:23.361Z,88.88
2022-10-22T21:58:51.388Z,88.74
2022-10-22T22:01:19.202Z,88.65
2022-10-22T22:03:49.411Z,88.61
2022-10-22T22:06:21.264Z,88.59
2022-10-22T22:08:51.317Z,88.96
2022-10-22T22:11:22.076Z,88.93
2022-10-22T22:13:50.381Z,88.91
2022-10-22T22:16:27.265Z,88.95
2022-10-22T22:18:58.795Z,88.95
2022-10-22T22:21:26.694Z,88.97
2022-10-22T22:23:54.509Z,89.02
2022-10-22T22:26:28.283Z,88.92
2022-10-22T22:29:01.293Z,88.75
2022-10-22T22:31:38.247Z,88.59
2022-10-22T22:34:12.846Z,88.71
2022-10-22T22:36:43.103Z,88.57
2022-10-22T22:39:19.230Z,88.63
2022-10-22T22:41:47.166Z,88.63
2022-10-22T22:44:14.961Z,88.67
2022-10-22T22:46:42.802Z,89.09
2022-10-22T22:49:12.092Z,89.18
2022-10-22T22:51:39.645Z,89.16
2022-10-22T22:54:07.103Z,89.16
2022-10-22T22:56:35.019Z,89.23
2022-10-22T22:59:03.459Z,89.05
2022-10-22T23:01:32.036Z,89.07
2022-10-22T23:04:12.907Z,89.03
2022-10-22T23:06:40.455Z,88.63
2022-10-22T23:09:11.112Z,88.58
2022-10-22T23:11:39.926Z,88.68
2022-10-22T23:14:08.684Z,88.92
2022-10-22T23:16:40.008Z,89.22
2022-10-22T23:19:07.944Z,89.48
2022-10-22T23:21:39.475Z,89.66
2022-10-22T23:24:11.479Z,89.52
2022-10-22T23:26:42.053Z,89.55
2022-10-22T23:29:16.274Z,89.49
2022-10-22T23:31:45.571Z,89.35
2022-10-22T23:34:17.173Z,89.15
2022-10-22T23:36:45.735Z,89.09
2022-10-22T23:39:16.341Z,88.68
2022-10-22T23:41:43.847Z,88.48
2022-10-22T23:44:13.041Z,88.45
2022-10-22T23:46:41.059Z,88.36
2022-10-22T23:49:09.658Z,87.97
2022-10-22T23:51:38.624Z,87.87
2022-10-22T23:54:09.040Z,87.91
2022-10-22T23:56:36.865Z,88.20
2022-10-22T23:59:04.995Z,88.02
